createdAt,value
2017-06-14T00:02:05.259Z,8.33
2017-06-14T00:04:32.854Z,7.77
2017-06-14T00:07:00.367Z,7.77
2017-06-14T00:09:27.872Z,9.03
2017-06-14T00:11:55.423Z,8.40
2017-06-14T00:14:22.698Z,7.90
2017-06-14T00:16:50.203Z,8.10
2017-06-14T00:19:17.751Z,7.80
2017-06-14T00:21:45.251Z,8.93
2017-06-14T00:24:12.775Z,8.47
2017-06-14T00:26:40.362Z,8.50
2017-06-14T00:29:07.862Z,8.00
2017-06-14T00:31:35.367Z,8.53
2017-06-14T00:34:02.943Z,8.83
2017-06-14T00:36:30.443Z,8.60
2017-06-14T00:38:57.946Z,8.03
2017-06-14T00:41:25.571Z,8.47
2017-06-14T00:43:53.079Z,8.40
2017-06-14T00:46:20.582Z,8.33
2017-06-14T00:48:48.131Z,7.90
2017-06-14T00:51:15.631Z,9.50
2017-06-14T00:53:43.219Z,8.33
2017-06-14T00:56:10.800Z,9.30
2017-06-14T00:58:38.483Z,8.70
2017-06-14T01:01:06.004Z,8.53
2017-06-14T01:03:33.587Z,8.97
2017-06-14T01:06:01.068Z,8.33
2017-06-14T01:08:28.560Z,8.50
2017-06-14T01:10:56.092Z,9.60
2017-06-14T01:13:23.607Z,9.50
2017-06-14T01:15:51.139Z,10.37
2017-06-14T01:18:18.668Z,8.90
2017-06-14T01:20:46.152Z,9.43
2017-06-14T01:23:13.630Z,10.67
2017-06-14T01:25:41.191Z,10.73
2017-06-14T01:28:08.676Z,10.17
2017-06-14T01:30:36.155Z,9.60
2017-06-14T01:33:03.700Z,10.33
2017-06-14T01:35:31.234Z,8.60
2017-06-14T01:37:58.784Z,9.70
2017-06-14T01:40:26.310Z,10.77
2017-06-14T01:42:53.828Z,10.20
2017-06-14T01:45:21.312Z,9.67
2017-06-14T01:47:48.926Z,8.77
2017-06-14T01:50:16.403Z,9.20
2017-06-14T01:52:43.888Z,10.13
2017-06-14T01:55:11.561Z,10.10
2017-06-14T01:57:39.052Z,9.87
2017-06-14T02:00:06.538Z,9.03
2017-06-14T02:02:34.268Z,10.50
2017-06-14T02:05:01.747Z,9.90
2017-06-14T02:07:29.247Z,8.90
2017-06-14T02:09:56.851Z,10.23
2017-06-14T02:12:24.328Z,10.50
2017-06-14T02:14:51.812Z,10.20
2017-06-14T02:17:19.433Z,9.63
2017-06-14T02:19:46.912Z,9.90
2017-06-14T02:22:14.387Z,9.83
2017-06-14T02:24:41.909Z,9.50
2017-06-14T02:27:09.388Z,10.03
2017-06-14T02:29:36.870Z,10.27
2017-06-14T02:32:04.456Z,10.97
2017-06-14T02:34:31.936Z,10.40
2017-06-14T02:36:59.422Z,10.43
2017-06-14T02:39:26.956Z,11.90
2017-06-14T02:41:54.432Z,11.10
2017-06-14T02:44:21.912Z,10.30
2017-06-14T02:46:49.455Z,12.03
2017-06-14T02:49:17.109Z,9.10
2017-06-14T02:51:44.672Z,11.03
2017-06-14T02:54:12.265Z,11.50
2017-06-14T02:56:39.779Z,11.93
2017-06-14T02:59:07.754Z,9.60
2017-06-14T03:01:35.952Z,10.53
2017-06-14T03:04:03.429Z,9.93
2017-06-14T03:06:42.657Z,10.17
2017-06-14T03:09:10.327Z,11.43
2017-06-14T03:11:37.806Z,12.20
2017-06-14T03:14:05.404Z,11.10
2017-06-14T03:16:32.933Z,11.60
2017-06-14T03:19:00.423Z,12.17
2017-06-14T03:21:27.963Z,12.03
2017-06-14T03:23:55.443Z,11.90
2017-06-14T03:26:22.936Z,12.07
2017-06-14T03:28:50.484Z,12.10
2017-06-14T03:31:17.984Z,12.47
2017-06-14T03:33:45.471Z,11.80
2017-06-14T03:36:13.027Z,11.53
2017-06-14T03:38:40.572Z,11.50
2017-06-14T03:41:08.055Z,14.00
2017-06-14T03:43:35.587Z,11.90
2017-06-14T03:46:03.075Z,12.73
2017-06-14T03:48:30.567Z,12.70
2017-06-14T03:50:58.179Z,12.70
2017-06-14T03:53:25.659Z,12.43
2017-06-14T03:55:53.142Z,12.30
2017-06-14T03:58:20.675Z,13.60
2017-06-14T04:00:48.163Z,11.70
2017-06-14T04:03:15.646Z,13.00
2017-06-14T04:05:43.169Z,11.57
2017-06-14T04:08:10.656Z,12.93
2017-06-14T04:10:38.159Z,11.03
2017-06-14T04:13:06.037Z,11.17
2017-06-14T04:15:33.545Z,12.60
2017-06-14T04:18:01.021Z,11.37
2017-06-14T04:20:28.565Z,11.47
2017-06-14T04:22:56.040Z,10.33
2017-06-14T04:25:29.549Z,10.60
2017-06-14T04:27:57.095Z,11.37
2017-06-14T04:30:24.595Z,11.57
2017-06-14T04:32:52.131Z,12.10
2017-06-14T04:35:19.612Z,11.43
2017-06-14T04:37:47.092Z,11.87
2017-06-14T04:40:14.708Z,12.57
2017-06-14T04:42:42.213Z,11.97
2017-06-14T04:45:09.695Z,10.70
2017-06-14T04:47:37.226Z,11.83
2017-06-14T04:50:04.713Z,12.20
2017-06-14T04:52:32.204Z,12.60
2017-06-14T04:54:59.742Z,11.47
2017-06-14T04:57:27.228Z,11.80
2017-06-14T04:59:54.715Z,11.50
2017-06-14T05:02:22.267Z,12.00
2017-06-14T05:04:49.758Z,11.90
2017-06-14T05:07:17.235Z,10.97
2017-06-14T05:09:44.784Z,11.57
2017-06-14T05:12:12.268Z,10.73
2017-06-14T05:14:39.763Z,12.13
2017-06-14T05:17:07.367Z,11.80
2017-06-14T05:19:35.739Z,10.87
2017-06-14T05:22:03.239Z,11.60
2017-06-14T05:24:30.725Z,12.00
2017-06-14T05:26:58.355Z,11.50
2017-06-14T05:29:25.879Z,11.87
2017-06-14T05:31:53.403Z,11.57
2017-06-14T05:34:20.939Z,9.90
2017-06-14T05:36:48.428Z,13.10
2017-06-14T05:39:15.921Z,11.80
2017-06-14T05:41:43.517Z,11.10
2017-06-14T05:44:11.053Z,10.80
2017-06-14T05:46:38.796Z,11.80
2017-06-14T05:49:06.377Z,10.77
2017-06-14T05:51:33.867Z,12.10
2017-06-14T05:54:01.362Z,11.40
2017-06-14T05:56:28.904Z,10.60
2017-06-14T05:58:56.391Z,11.20
2017-06-14T06:01:24.408Z,9.93
2017-06-14T06:03:52.007Z,11.30
2017-06-14T06:06:20.270Z,11.20
2017-06-14T06:08:48.531Z,12.10
2017-06-14T06:11:16.892Z,10.77
2017-06-14T06:13:44.406Z,11.13
2017-06-14T06:16:11.911Z,10.60
2017-06-14T06:18:39.607Z,10.10
2017-06-14T06:21:07.195Z,11.90
2017-06-14T06:23:34.744Z,11.13
2017-06-14T06:26:02.399Z,10.47
2017-06-14T06:28:30.662Z,9.60
2017-06-14T06:30:58.187Z,9.20
2017-06-14T06:33:25.723Z,8.67
2017-06-14T06:35:53.280Z,9.03
2017-06-14T06:38:20.797Z,9.63
2017-06-14T06:40:48.320Z,8.83
2017-06-14T06:43:15.884Z,10.20
2017-06-14T06:45:43.399Z,8.73
2017-06-14T06:48:10.938Z,8.73
2017-06-14T06:50:38.529Z,9.53
2017-06-14T06:53:06.039Z,9.43
2017-06-14T06:55:33.547Z,9.23
2017-06-14T06:58:01.083Z,9.90
2017-06-14T07:00:28.595Z,8.90
2017-06-14T07:02:56.102Z,8.63
2017-06-14T07:05:23.687Z,9.00
2017-06-14T07:07:51.260Z,9.03
2017-06-14T07:10:18.780Z,9.23
2017-06-14T07:12:46.399Z,8.70
2017-06-14T07:15:13.908Z,7.50
2017-06-14T07:17:41.412Z,7.60
2017-06-14T07:20:09.244Z,8.53
2017-06-14T07:22:36.762Z,7.70
2017-06-14T07:25:04.270Z,6.73
2017-06-14T07:27:31.933Z,8.70
2017-06-14T07:29:59.441Z,7.80
2017-06-14T07:32:26.975Z,6.53
2017-06-14T07:34:54.534Z,7.20
2017-06-14T07:37:22.038Z,8.00
2017-06-14T07:39:49.552Z,7.77
2017-06-14T07:42:17.135Z,5.93
2017-06-14T07:44:44.643Z,7.10
2017-06-14T07:47:12.151Z,7.00
2017-06-14T07:49:39.727Z,7.03
2017-06-14T07:52:07.219Z,7.07
2017-06-14T07:54:34.813Z,7.03
2017-06-14T07:57:02.668Z,6.43
2017-06-14T07:59:30.198Z,7.27
2017-06-14T08:01:57.699Z,6.20
2017-06-14T08:04:25.254Z,6.57
2017-06-14T08:06:52.756Z,6.40
2017-06-14T08:09:20.309Z,7.93
2017-06-14T08:11:47.895Z,6.07
2017-06-14T08:14:15.404Z,6.97
2017-06-14T08:16:42.908Z,6.87
2017-06-14T08:19:10.469Z,6.40
2017-06-14T08:21:37.967Z,7.17
2017-06-14T08:24:05.478Z,6.97
2017-06-14T08:26:33.043Z,7.40
2017-06-14T08:29:00.547Z,8.17
2017-06-14T08:31:28.086Z,7.50
2017-06-14T08:33:55.871Z,6.67
2017-06-14T08:36:23.494Z,7.97
2017-06-14T08:38:50.995Z,7.60
2017-06-14T08:41:18.707Z,7.13
2017-06-14T08:43:46.485Z,6.33
2017-06-14T08:46:14.116Z,6.97
2017-06-14T08:48:41.705Z,7.47
2017-06-14T08:51:09.327Z,6.27
2017-06-14T08:53:36.889Z,7.23
2017-06-14T08:56:04.524Z,6.60
2017-06-14T08:58:32.027Z,6.97
2017-06-14T09:00:59.787Z,6.90
2017-06-14T09:03:27.384Z,7.30
2017-06-14T09:05:54.893Z,7.73
2017-06-14T09:08:22.400Z,7.80
2017-06-14T09:10:49.964Z,6.60
2017-06-14T09:13:17.553Z,7.00
2017-06-14T09:15:45.058Z,7.33
2017-06-14T09:18:12.971Z,6.83
2017-06-14T09:20:40.474Z,7.87
2017-06-14T09:23:07.975Z,7.10
2017-06-14T09:25:35.531Z,7.40
2017-06-14T09:28:03.480Z,7.50
2017-06-14T09:30:31.077Z,7.50
2017-06-14T09:32:58.624Z,7.00
2017-06-14T09:35:26.319Z,6.17
2017-06-14T09:37:53.819Z,7.40
2017-06-14T09:40:21.378Z,7.03
2017-06-14T09:42:48.884Z,6.73
2017-06-14T09:45:16.393Z,6.53
2017-06-14T09:47:44.007Z,6.73
2017-06-14T09:50:11.554Z,6.30
2017-06-14T09:52:39.059Z,7.30
2017-06-14T09:55:06.631Z,6.53
2017-06-14T09:57:34.167Z,7.37
2017-06-14T10:00:01.707Z,8.03
2017-06-14T10:02:29.268Z,7.07
2017-06-14T10:04:56.811Z,7.03
2017-06-14T10:07:24.532Z,6.20
2017-06-14T10:09:52.223Z,6.73
2017-06-14T10:12:19.799Z,6.00
2017-06-14T10:14:47.300Z,6.70
2017-06-14T10:17:14.855Z,7.33
2017-06-14T10:19:42.384Z,6.43
2017-06-14T10:22:09.951Z,6.93
2017-06-14T10:24:37.447Z,6.20
2017-06-14T10:27:05.216Z,6.13
2017-06-14T10:29:32.833Z,6.90
2017-06-14T10:32:00.338Z,6.30
2017-06-14T10:34:27.899Z,6.53
2017-06-14T10:36:55.408Z,6.10
2017-06-14T10:39:22.906Z,6.33
2017-06-14T10:41:50.523Z,7.07
2017-06-14T10:44:18.051Z,8.10
2017-06-14T10:46:45.563Z,6.17
2017-06-14T10:49:13.136Z,6.40
2017-06-14T10:51:40.749Z,6.87
2017-06-14T10:54:08.553Z,6.50
2017-06-14T10:56:36.185Z,6.43
2017-06-14T10:59:03.703Z,7.07
2017-06-14T11:01:31.207Z,6.73
2017-06-14T11:03:58.875Z,6.40
2017-06-14T11:06:26.374Z,6.63
2017-06-14T11:08:53.883Z,6.73
2017-06-14T11:11:21.447Z,7.30
2017-06-14T11:13:48.955Z,6.27
2017-06-14T11:16:16.460Z,6.53
2017-06-14T11:18:44.308Z,6.07
2017-06-14T11:21:12.423Z,5.80
2017-06-14T11:23:39.988Z,6.20
2017-06-14T11:26:07.555Z,6.17
2017-06-14T11:28:35.055Z,6.40
2017-06-14T11:31:02.563Z,6.70
2017-06-14T11:33:30.246Z,6.83
2017-06-14T11:35:57.786Z,5.77
2017-06-14T11:38:25.295Z,6.90
2017-06-14T11:40:52.839Z,5.90
2017-06-14T11:43:20.340Z,6.80
2017-06-14T11:45:47.837Z,6.57
2017-06-14T11:48:15.416Z,6.40
2017-06-14T11:50:42.931Z,6.23
2017-06-14T11:53:10.446Z,6.27
2017-06-14T11:55:38.015Z,6.17
2017-06-14T11:58:05.616Z,6.63
2017-06-14T12:00:33.120Z,7.73
2017-06-14T12:03:00.711Z,6.73
2017-06-14T12:05:28.215Z,6.90
2017-06-14T12:07:55.723Z,6.70
2017-06-14T12:10:23.291Z,6.73
2017-06-14T12:12:51.015Z,6.37
2017-06-14T12:15:18.535Z,6.53
2017-06-14T12:17:46.039Z,7.73
2017-06-14T12:20:14.211Z,7.07
2017-06-14T12:22:41.716Z,6.40
2017-06-14T12:25:09.267Z,7.40
2017-06-14T12:27:36.976Z,6.97
2017-06-14T12:30:04.487Z,6.80
2017-06-14T12:32:31.995Z,8.20
2017-06-14T12:34:59.567Z,7.10
2017-06-14T12:37:27.071Z,7.27
2017-06-14T12:39:54.579Z,6.90
2017-06-14T12:42:22.226Z,6.83
2017-06-14T12:44:49.785Z,7.00
2017-06-14T12:47:17.288Z,6.70
2017-06-14T12:49:44.851Z,6.87
2017-06-14T12:52:12.357Z,5.73
2017-06-14T12:54:40.249Z,7.30
2017-06-14T12:57:08.047Z,7.03
2017-06-14T12:59:35.552Z,5.93
2017-06-14T13:02:03.059Z,6.43
2017-06-14T13:04:30.624Z,6.03
2017-06-14T13:06:58.139Z,6.33
2017-06-14T13:09:25.643Z,6.03
2017-06-14T13:11:53.217Z,6.37
2017-06-14T13:14:20.719Z,7.30
2017-06-14T13:16:48.227Z,5.67
2017-06-14T13:19:16.558Z,6.00
2017-06-14T13:21:44.294Z,7.33
2017-06-14T13:24:11.794Z,5.67
2017-06-14T13:26:39.382Z,6.53
2017-06-14T13:29:07.007Z,6.83
2017-06-14T13:31:34.512Z,6.10
2017-06-14T13:34:02.230Z,6.50
2017-06-14T13:36:29.735Z,5.97
2017-06-14T13:38:57.247Z,6.63
2017-06-14T13:41:24.819Z,6.00
2017-06-14T13:43:52.402Z,6.50
2017-06-14T13:46:19.907Z,6.50
2017-06-14T13:48:47.552Z,6.37
2017-06-14T13:51:15.074Z,7.27
2017-06-14T13:53:42.575Z,5.67
2017-06-14T13:56:10.128Z,5.80
2017-06-14T13:58:37.640Z,6.20
2017-06-14T14:01:05.143Z,6.47
2017-06-14T14:03:32.754Z,6.27
2017-06-14T14:06:00.268Z,7.07
2017-06-14T14:08:27.782Z,6.20
2017-06-14T14:10:55.333Z,6.20
2017-06-14T14:13:22.918Z,5.93
2017-06-14T14:15:50.420Z,6.33
2017-06-14T14:18:17.997Z,5.87
2017-06-14T14:20:45.504Z,6.03
2017-06-14T14:23:13.011Z,7.23
2017-06-14T14:25:40.552Z,7.40
2017-06-14T14:28:08.075Z,6.07
2017-06-14T14:30:35.624Z,6.67
2017-06-14T14:33:03.231Z,6.80
2017-06-14T14:35:30.735Z,7.43
2017-06-14T14:37:58.317Z,7.30
2017-06-14T14:40:25.876Z,6.70
2017-06-14T14:42:53.395Z,6.97
2017-06-14T14:45:20.926Z,6.80
2017-06-14T14:47:48.827Z,6.87
2017-06-14T14:50:16.334Z,6.20
2017-06-14T14:52:43.840Z,7.07
2017-06-14T14:55:11.423Z,7.13
2017-06-14T14:57:39.037Z,8.40
2017-06-14T15:00:06.599Z,6.70
2017-06-14T15:02:34.155Z,6.53
2017-06-14T15:05:01.653Z,7.70
2017-06-14T15:07:29.159Z,6.90
2017-06-14T15:09:56.764Z,6.47
2017-06-14T15:12:24.271Z,6.43
2017-06-14T15:14:51.779Z,7.07
2017-06-14T15:17:19.357Z,6.40
2017-06-14T15:19:46.956Z,6.33
2017-06-14T15:22:14.464Z,6.33
2017-06-14T15:24:42.016Z,6.10
2017-06-14T15:27:09.532Z,6.60
2017-06-14T15:29:37.040Z,7.07
2017-06-14T15:32:04.663Z,6.60
2017-06-14T15:34:32.183Z,5.80
2017-06-14T15:36:59.689Z,6.77
2017-06-14T15:39:27.344Z,6.20
2017-06-14T15:41:54.879Z,6.50
2017-06-14T15:44:22.379Z,6.40
2017-06-14T15:46:50.005Z,6.83
2017-06-14T15:49:17.520Z,6.53
2017-06-14T15:51:45.075Z,8.10
2017-06-14T15:54:12.650Z,6.70
2017-06-14T15:56:40.159Z,6.30
2017-06-14T15:59:07.666Z,6.57
2017-06-14T16:01:35.229Z,6.70
2017-06-14T16:04:02.731Z,7.20
2017-06-14T16:06:30.275Z,6.40
2017-06-14T16:08:57.819Z,6.90
2017-06-14T16:11:25.321Z,6.03
2017-06-14T16:13:52.824Z,6.73
2017-06-14T16:16:20.391Z,6.40
2017-06-14T16:18:47.964Z,6.27
2017-06-14T16:21:15.467Z,6.40
2017-06-14T16:23:43.011Z,5.97
2017-06-14T16:26:10.515Z,6.60
2017-06-14T16:28:38.020Z,6.33
2017-06-14T16:31:05.762Z,6.00
2017-06-14T16:33:33.334Z,5.90
2017-06-14T16:36:00.839Z,6.80
2017-06-14T16:38:28.450Z,6.17
2017-06-14T16:40:56.215Z,5.80
2017-06-14T16:43:23.730Z,6.70
2017-06-14T16:45:51.307Z,5.70
2017-06-14T16:48:18.818Z,6.37
2017-06-14T16:50:46.328Z,6.50
2017-06-14T16:53:14.014Z,6.10
2017-06-14T16:55:41.522Z,6.57
2017-06-14T16:58:09.023Z,6.03
2017-06-14T17:00:36.697Z,6.40
2017-06-14T17:03:04.268Z,6.20
2017-06-14T17:05:31.800Z,5.80
2017-06-14T17:07:59.663Z,6.13
2017-06-14T17:10:27.275Z,6.83
2017-06-14T17:12:54.792Z,6.03
2017-06-14T17:15:22.419Z,6.93
2017-06-14T17:17:49.926Z,5.80
2017-06-14T17:20:17.458Z,6.50
2017-06-14T17:22:45.067Z,6.23
2017-06-14T17:25:12.627Z,6.30
2017-06-14T17:27:40.147Z,6.30
2017-06-14T17:30:07.795Z,6.00
2017-06-14T17:32:35.307Z,6.53
2017-06-14T17:35:02.885Z,6.20
2017-06-14T17:37:30.627Z,7.07
2017-06-14T17:39:58.191Z,6.50
2017-06-14T17:42:25.686Z,7.13
2017-06-14T17:44:53.260Z,7.40
2017-06-14T17:47:20.770Z,5.97
2017-06-14T17:49:48.305Z,6.00
2017-06-14T17:52:15.948Z,7.10
2017-06-14T17:54:43.459Z,6.53
2017-06-14T17:57:11.003Z,6.93
2017-06-14T17:59:38.652Z,6.83
2017-06-14T18:02:06.319Z,6.47
2017-06-14T18:04:33.824Z,6.70
2017-06-14T18:07:01.456Z,5.90
2017-06-14T18:09:28.982Z,6.90
2017-06-14T18:11:56.520Z,6.97
2017-06-14T18:14:24.104Z,6.13
2017-06-14T18:16:51.648Z,6.50
2017-06-14T18:19:19.183Z,6.60
2017-06-14T18:21:46.804Z,5.67
2017-06-14T18:24:14.333Z,7.27
2017-06-14T18:26:41.909Z,6.17
2017-06-14T18:29:09.459Z,7.07
2017-06-14T18:31:36.965Z,6.87
2017-06-14T18:34:04.528Z,6.73
2017-06-14T18:36:32.107Z,6.90
2017-06-14T18:38:59.620Z,6.73
2017-06-14T18:41:28.040Z,7.10
2017-06-14T18:43:55.624Z,7.13
2017-06-14T18:46:23.121Z,6.87
2017-06-14T18:48:50.651Z,7.57
2017-06-14T18:51:18.240Z,6.70
2017-06-14T18:53:45.779Z,7.47
2017-06-14T18:56:13.319Z,6.90
2017-06-14T18:58:41.153Z,7.23
2017-06-14T19:01:08.764Z,7.70
2017-06-14T19:03:36.288Z,7.10
2017-06-14T19:06:03.928Z,6.47
2017-06-14T19:08:31.435Z,6.70
2017-06-14T19:10:58.939Z,6.97
2017-06-14T19:13:26.808Z,7.20
2017-06-14T19:15:54.383Z,7.70
2017-06-14T19:18:22.004Z,6.30
2017-06-14T19:20:49.591Z,7.47
2017-06-14T19:23:17.146Z,7.80
2017-06-14T19:25:48.637Z,7.73
2017-06-14T19:28:16.208Z,8.30
2017-06-14T19:30:43.731Z,7.93
2017-06-14T19:33:11.321Z,8.63
2017-06-14T19:35:38.867Z,8.13
2017-06-14T19:38:06.379Z,7.90
2017-06-14T19:40:33.886Z,7.90
2017-06-14T19:43:01.507Z,8.43
2017-06-14T19:45:29.030Z,8.03
2017-06-14T19:47:56.958Z,9.30
2017-06-14T19:50:24.692Z,9.10
2017-06-14T19:52:52.201Z,8.07
2017-06-14T19:55:19.718Z,8.80
2017-06-14T19:57:47.287Z,8.17
2017-06-14T20:00:14.852Z,7.43
2017-06-14T20:02:42.396Z,8.83
2017-06-14T20:05:09.981Z,8.40
2017-06-14T20:07:37.499Z,7.90
2017-06-14T20:10:05.013Z,8.00
2017-06-14T20:12:32.642Z,8.57
2017-06-14T20:15:00.147Z,8.20
2017-06-14T20:17:27.733Z,8.67
2017-06-14T20:19:55.315Z,7.77
2017-06-14T20:22:23.220Z,7.90
2017-06-14T20:24:50.935Z,7.37
2017-06-14T20:27:19.235Z,7.90
2017-06-14T20:29:46.734Z,7.50
2017-06-14T20:32:14.255Z,7.17
2017-06-14T20:34:42.052Z,8.13
2017-06-14T20:37:09.561Z,7.93
2017-06-14T20:39:37.086Z,7.70
2017-06-14T20:42:04.647Z,7.30
2017-06-14T20:44:32.846Z,7.37
2017-06-14T20:47:00.382Z,8.37
2017-06-14T20:49:28.023Z,6.63
2017-06-14T20:51:55.538Z,7.80
2017-06-14T20:54:23.055Z,8.17
2017-06-14T20:56:50.675Z,7.33
2017-06-14T20:59:18.247Z,7.80
2017-06-14T21:01:45.823Z,7.13
2017-06-14T21:04:13.403Z,9.10
2017-06-14T21:06:41.007Z,8.60
2017-06-14T21:09:08.515Z,7.90
2017-06-14T21:11:36.167Z,8.17
2017-06-14T21:14:03.683Z,8.47
2017-06-14T21:16:31.260Z,7.20
2017-06-14T21:18:58.807Z,8.40
2017-06-14T21:21:26.357Z,8.00
2017-06-14T21:23:54.031Z,9.30
2017-06-14T21:26:21.591Z,9.50
2017-06-14T21:28:49.095Z,8.80
2017-06-14T21:31:16.609Z,8.20
2017-06-14T21:33:44.160Z,9.57
2017-06-14T21:36:12.009Z,9.10
2017-06-14T21:38:39.598Z,8.37
2017-06-14T21:41:07.158Z,9.23
2017-06-14T21:43:34.695Z,8.30
2017-06-14T21:46:02.210Z,9.60
2017-06-14T21:48:29.753Z,8.90
2017-06-14T21:50:57.363Z,10.67
2017-06-14T21:53:24.903Z,9.33
2017-06-14T21:55:52.459Z,8.37
2017-06-14T21:58:20.044Z,9.40
2017-06-14T22:00:47.607Z,8.20
2017-06-14T22:03:15.490Z,9.10
2017-06-14T22:05:43.020Z,10.47
2017-06-14T22:08:10.535Z,10.20
2017-06-14T22:10:38.171Z,9.47
2017-06-14T22:13:05.700Z,10.20
2017-06-14T22:15:33.250Z,9.90
2017-06-14T22:18:00.804Z,9.40
2017-06-14T22:20:28.314Z,9.10
2017-06-14T22:22:55.859Z,9.10
2017-06-14T22:25:23.435Z,9.87
2017-06-14T22:27:50.952Z,9.90
2017-06-14T22:30:18.454Z,8.30
2017-06-14T22:32:46.097Z,8.37
2017-06-14T22:35:13.604Z,9.60
2017-06-14T22:37:41.113Z,10.27
2017-06-14T22:40:09.047Z,10.17
2017-06-14T22:42:36.551Z,9.93
2017-06-14T22:45:04.050Z,9.70
2017-06-14T22:47:31.670Z,10.40
2017-06-14T22:49:59.195Z,10.57
2017-06-14T22:52:26.720Z,9.80
2017-06-14T22:54:54.300Z,11.00
2017-06-14T22:57:21.804Z,9.77
2017-06-14T22:59:49.398Z,11.33
2017-06-14T23:02:16.951Z,10.53
2017-06-14T23:04:44.459Z,10.63
2017-06-14T23:07:12.019Z,10.83
2017-06-14T23:09:39.672Z,11.97
2017-06-14T23:12:07.183Z,11.07
2017-06-14T23:14:34.795Z,12.53
2017-06-14T23:17:02.651Z,11.00
2017-06-14T23:19:30.235Z,11.37
2017-06-14T23:21:57.771Z,10.07
2017-06-14T23:24:25.400Z,11.60
2017-06-14T23:26:52.913Z,11.47
2017-06-14T23:29:20.433Z,11.23
2017-06-14T23:31:48.037Z,10.10
2017-06-14T23:34:15.556Z,11.10
2017-06-14T23:36:43.112Z,11.30
2017-06-14T23:39:10.741Z,11.23
2017-06-14T23:41:38.253Z,12.00
2017-06-14T23:44:05.875Z,11.37
2017-06-14T23:46:33.431Z,12.40
2017-06-14T23:49:00.991Z,10.13
2017-06-14T23:51:28.500Z,11.60
2017-06-14T23:53:56.065Z,11.53
2017-06-14T23:56:23.743Z,13.07
2017-06-14T23:58:51.281Z,12.20
